Time;durP1;ratioP1;P1;durP2;ratioP2;P2;SDS_P1;SDS_P2;PMS_P1;PMS_P2;Temp;Humidity;BMP_temperature;BMP_pressure;BME280_temperature;BME280_humidity;BME280_pressure;Samples;Min_cycle;Max_cycle;Signal;HPM_P1;HPM_P2
2023/01/12 00:00:56;;;;;;;;;;;21.70;37.00;;;;;;476110;249;1723;-44
2023/01/12 00:02:58;;;;;;;;;;;21.70;36.90;;;;;;476235;249;1943;-44
2023/01/12 00:04:59;;;;;;;;;;;21.70;36.90;;;;;;476213;249;2146;-44
2023/01/12 00:07:01;;;;;;;;;;;21.70;36.90;;;;;;476048;249;2156;-44
2023/01/12 00:09:02;;;;;;;;;;;21.70;36.90;;;;;;476239;249;1674;-44
2023/01/12 00:11:03;;;;;;;;;;;21.70;36.90;;;;;;476110;249;2008;-44
2023/01/12 00:13:05;;;;;;;;;;;21.70;36.80;;;;;;476108;249;1710;-44
2023/01/12 00:15:06;;;;;;;;;;;21.80;36.80;;;;;;476209;249;2219;-44
2023/01/12 00:17:10;;;;;;;;;;;21.80;36.80;;;;;;476358;249;1855;-44
2023/01/12 00:19:14;;;;;;;;;;;21.70;36.80;;;;;;476300;250;1913;-44
2023/01/12 00:21:14;;;;;;;;;;;21.80;36.80;;;;;;476137;249;2223;-44
2023/01/12 00:23:15;;;;;;;;;;;21.80;36.80;;;;;;476332;249;2333;-45
2023/01/12 00:25:16;;;;;;;;;;;21.80;36.80;;;;;;476231;249;1649;-44
2023/01/12 00:27:18;;;;;;;;;;;21.80;36.80;;;;;;476194;249;1901;-44
2023/01/12 00:29:20;;;;;;;;;;;21.80;36.80;;;;;;476406;249;1871;-44
2023/01/12 00:31:21;;;;;;;;;;;21.80;36.70;;;;;;476188;249;1961;-44
2023/01/12 00:33:22;;;;;;;;;;;21.80;36.70;;;;;;476115;249;1981;-44
2023/01/12 00:35:23;;;;;;;;;;;21.80;36.80;;;;;;476267;249;2196;-44
2023/01/12 00:37:25;;;;;;;;;;;21.70;36.90;;;;;;476324;249;2013;-44
2023/01/12 00:39:26;;;;;;;;;;;21.60;37.00;;;;;;476493;249;2119;-44
2023/01/12 00:46:06;;;;;;;;;;;21.50;37.10;;;;;;476364;250;1826;-44
2023/01/12 00:48:09;;;;;;;;;;;21.50;37.30;;;;;;476480;249;1763;-44
2023/01/12 00:50:08;;;;;;;;;;;21.40;37.30;;;;;;476350;250;2311;-44
2023/01/12 00:52:10;;;;;;;;;;;21.40;37.20;;;;;;476654;249;1718;-44
2023/01/12 00:54:11;;;;;;;;;;;21.40;37.30;;;;;;476491;249;2192;-44
2023/01/12 00:56:12;;;;;;;;;;;21.40;37.30;;;;;;476318;249;1731;-44
2023/01/12 00:58:14;;;;;;;;;;;21.40;37.40;;;;;;476236;249;1680;-44
2023/01/12 01:00:15;;;;;;;;;;;21.40;37.40;;;;;;476270;249;1591;-44
2023/01/12 01:02:16;;;;;;;;;;;21.30;37.40;;;;;;476483;249;1928;-45
2023/01/12 01:04:18;;;;;;;;;;;21.40;37.40;;;;;;476353;249;1739;-44
2023/01/12 01:06:19;;;;;;;;;;;21.40;37.40;;;;;;475947;249;1861;-44
2023/01/12 01:08:21;;;;;;;;;;;21.30;37.40;;;;;;476358;249;2351;-44
2023/01/12 01:10:22;;;;;;;;;;;21.30;37.40;;;;;;476157;249;2368;-45
2023/01/12 01:12:23;;;;;;;;;;;21.40;37.40;;;;;;476103;249;1776;-44
2023/01/12 01:14:25;;;;;;;;;;;21.40;37.40;;;;;;476219;249;2199;-45
2023/01/12 01:16:26;;;;;;;;;;;21.40;37.40;;;;;;476163;249;1733;-44
2023/01/12 01:18:27;;;;;;;;;;;21.40;37.50;;;;;;476276;249;1852;-45
2023/01/12 01:20:31;;;;;;;;;;;21.30;37.50;;;;;;476123;249;1703;-44
2023/01/12 01:22:31;;;;;;;;;;;21.30;37.50;;;;;;475895;250;2250;-44
2023/01/12 01:24:32;;;;;;;;;;;21.30;37.40;;;;;;476027;249;1681;-45
2023/01/12 01:26:33;;;;;;;;;;;21.30;37.50;;;;;;475995;249;1756;-44
2023/01/12 01:28:35;;;;;;;;;;;21.30;37.50;;;;;;476019;249;2723;-44
2023/01/12 01:30:36;;;;;;;;;;;21.30;37.50;;;;;;475995;249;1919;-44
2023/01/12 01:32:37;;;;;;;;;;;21.30;37.50;;;;;;475980;249;2018;-44
2023/01/12 01:34:39;;;;;;;;;;;21.30;37.50;;;;;;476120;249;2191;-44
2023/01/12 01:36:40;;;;;;;;;;;21.30;37.50;;;;;;476068;249;2463;-44
2023/01/12 01:38:41;;;;;;;;;;;21.30;37.60;;;;;;476121;249;1817;-44
2023/01/12 01:40:43;;;;;;;;;;;21.30;37.60;;;;;;476123;249;1963;-44
2023/01/12 01:42:44;;;;;;;;;;;21.30;37.60;;;;;;476291;249;1538;-44
2023/01/12 01:44:45;;;;;;;;;;;21.20;37.60;;;;;;476295;249;2172;-44
2023/01/12 01:46:47;;;;;;;;;;;21.20;37.60;;;;;;476420;249;1747;-44
2023/01/12 01:48:48;;;;;;;;;;;21.20;37.60;;;;;;476461;249;1612;-44
2023/01/12 01:50:50;;;;;;;;;;;21.20;37.70;;;;;;476348;249;1401;-44
2023/01/12 01:52:51;;;;;;;;;;;21.10;37.70;;;;;;476302;250;1360;-44
2023/01/12 01:54:52;;;;;;;;;;;21.20;37.70;;;;;;476728;249;2184;-44
2023/01/12 01:56:53;;;;;;;;;;;21.20;37.70;;;;;;476526;249;1620;-44
2023/01/12 01:58:55;;;;;;;;;;;21.20;37.70;;;;;;476178;249;1671;-44
2023/01/12 02:00:56;;;;;;;;;;;21.10;37.70;;;;;;475902;249;1929;-44
2023/01/12 02:02:57;;;;;;;;;;;21.10;37.80;;;;;;475946;249;1773;-45
2023/01/12 02:04:59;;;;;;;;;;;21.10;37.80;;;;;;475971;249;1725;-44
2023/01/12 02:07:00;;;;;;;;;;;21.20;37.70;;;;;;475745;249;2149;-44
2023/01/12 02:09:02;;;;;;;;;;;21.40;37.40;;;;;;475900;249;1702;-45
2023/01/12 02:11:03;;;;;;;;;;;21.60;36.90;;;;;;475795;249;1976;-44
2023/01/12 02:17:44;;;;;;;;;;;22.10;36.10;;;;;;460859;250;1938;-45
2023/01/12 02:19:45;;;;;;;;;;;22.20;35.90;;;;;;476039;249;1727;-44
2023/01/12 02:21:47;;;;;;;;;;;22.30;35.80;;;;;;475975;249;1979;-45
2023/01/12 02:23:48;;;;;;;;;;;22.30;35.60;;;;;;476147;249;1965;-44
2023/01/12 02:25:50;;;;;;;;;;;22.40;35.60;;;;;;476060;249;2004;-44
2023/01/12 02:27:51;;;;;;;;;;;22.50;35.50;;;;;;476163;249;2250;-44
2023/01/12 02:29:52;;;;;;;;;;;22.50;35.40;;;;;;476062;249;1719;-45
2023/01/12 02:31:54;;;;;;;;;;;22.50;35.30;;;;;;475875;249;1667;-44
2023/01/12 02:33:55;;;;;;;;;;;22.60;35.30;;;;;;476028;249;1835;-45
2023/01/12 02:35:56;;;;;;;;;;;22.60;35.20;;;;;;475961;249;2169;-44
2023/01/12 02:37:58;;;;;;;;;;;22.70;35.20;;;;;;476043;249;2190;-45
2023/01/12 02:39:59;;;;;;;;;;;22.70;35.10;;;;;;476105;249;2136;-44
2023/01/12 02:44:19;;;;;;;;;;;22.80;35.00;;;;;;475944;250;1820;-44
2023/01/12 02:46:21;;;;;;;;;;;22.80;34.90;;;;;;475954;249;3198;-44
2023/01/12 02:48:22;;;;;;;;;;;22.80;34.90;;;;;;475956;249;1908;-44
2023/01/12 02:50:23;;;;;;;;;;;22.90;34.90;;;;;;476251;249;1780;-44
2023/01/12 02:52:25;;;;;;;;;;;22.90;34.80;;;;;;476278;249;1944;-44
2023/01/12 02:54:26;;;;;;;;;;;22.90;34.80;;;;;;476197;249;2196;-45
2023/01/12 02:56:27;;;;;;;;;;;22.90;34.70;;;;;;476248;249;2099;-45
2023/01/12 02:58:29;;;;;;;;;;;23.00;34.70;;;;;;476117;249;2102;-45
2023/01/12 03:00:30;;;;;;;;;;;23.00;34.70;;;;;;476212;249;1684;-44
2023/01/12 03:02:31;;;;;;;;;;;23.00;34.60;;;;;;476253;249;1706;-44
2023/01/12 03:04:33;;;;;;;;;;;23.00;34.60;;;;;;476263;249;1727;-44
2023/01/12 03:06:34;;;;;;;;;;;23.00;34.50;;;;;;476443;249;2245;-44
2023/01/12 03:08:35;;;;;;;;;;;23.10;34.50;;;;;;476255;249;1703;-44
2023/01/12 03:10:37;;;;;;;;;;;23.10;34.50;;;;;;476413;249;1835;-44
2023/01/12 03:12:38;;;;;;;;;;;23.10;34.40;;;;;;476261;249;1680;-45
2023/01/12 03:14:39;;;;;;;;;;;23.20;34.50;;;;;;476098;249;2255;-45
2023/01/12 03:16:41;;;;;;;;;;;23.20;34.50;;;;;;476250;249;2145;-44
2023/01/12 03:18:42;;;;;;;;;;;23.20;34.40;;;;;;476115;249;2133;-45
2023/01/12 03:20:43;;;;;;;;;;;23.20;34.40;;;;;;476164;249;1942;-44
2023/01/12 03:22:45;;;;;;;;;;;23.20;34.40;;;;;;476148;249;1926;-44
2023/01/12 03:24:46;;;;;;;;;;;23.30;34.40;;;;;;475996;249;1909;-45
2023/01/12 03:26:47;;;;;;;;;;;23.30;34.30;;;;;;476074;249;1938;-44
2023/01/12 03:28:49;;;;;;;;;;;23.30;34.30;;;;;;476197;249;2040;-45
2023/01/12 03:30:50;;;;;;;;;;;23.30;34.30;;;;;;476151;249;1693;-44
2023/01/12 03:32:51;;;;;;;;;;;23.30;34.30;;;;;;476213;249;2247;-45
2023/01/12 03:34:53;;;;;;;;;;;23.30;34.30;;;;;;476075;249;2204;-44
2023/01/12 03:36:54;;;;;;;;;;;23.30;34.30;;;;;;476050;249;1633;-44
2023/01/12 03:38:55;;;;;;;;;;;23.40;34.30;;;;;;476075;249;1731;-45
2023/01/12 03:40:57;;;;;;;;;;;23.40;34.30;;;;;;476138;249;2915;-45
2023/01/12 03:42:58;;;;;;;;;;;23.40;34.20;;;;;;476067;249;2128;-45
2023/01/12 03:44:59;;;;;;;;;;;23.40;34.20;;;;;;476100;249;1732;-44
2023/01/12 03:47:01;;;;;;;;;;;23.40;34.20;;;;;;476061;249;1754;-44
2023/01/12 03:49:02;;;;;;;;;;;23.40;34.20;;;;;;475962;249;1720;-44
2023/01/12 03:51:03;;;;;;;;;;;23.40;34.20;;;;;;475967;249;2310;-45
2023/01/12 03:53:05;;;;;;;;;;;23.40;34.20;;;;;;475977;249;2965;-44
2023/01/12 03:55:06;;;;;;;;;;;23.40;34.10;;;;;;476086;249;2172;-45
2023/01/12 03:57:07;;;;;;;;;;;23.50;34.20;;;;;;476039;249;1920;-44
2023/01/12 03:59:09;;;;;;;;;;;23.50;34.20;;;;;;476114;249;1738;-45
2023/01/12 04:01:10;;;;;;;;;;;23.50;34.10;;;;;;476280;249;1666;-44
2023/01/12 04:03:11;;;;;;;;;;;23.50;34.10;;;;;;476169;249;1742;-44
2023/01/12 04:05:13;;;;;;;;;;;23.50;34.10;;;;;;476338;249;1783;-45
2023/01/12 04:07:14;;;;;;;;;;;23.50;34.10;;;;;;476265;249;1734;-45
2023/01/12 04:09:15;;;;;;;;;;;23.50;34.10;;;;;;476409;249;1899;-44
2023/01/12 04:13:36;;;;;;;;;;;23.50;34.00;;;;;;476720;250;1802;-45
2023/01/12 04:15:41;;;;;;;;;;;23.60;34.10;;;;;;476193;249;2200;-44
2023/01/12 04:17:39;;;;;;;;;;;23.60;34.10;;;;;;476053;250;1979;-44
2023/01/12 04:19:40;;;;;;;;;;;23.60;34.00;;;;;;476324;249;1686;-44
2023/01/12 04:24:00;;;;;;;;;;;23.60;34.10;;;;;;476200;250;1792;-44
2023/01/12 04:26:02;;;;;;;;;;;23.60;34.10;;;;;;476205;249;1893;-44
2023/01/12 04:28:03;;;;;;;;;;;23.40;34.30;;;;;;476192;249;2115;-44
2023/01/12 04:30:04;;;;;;;;;;;23.20;34.60;;;;;;476180;249;2158;-44
2023/01/12 04:32:06;;;;;;;;;;;23.00;35.00;;;;;;476150;249;1645;-44
2023/01/12 04:34:07;;;;;;;;;;;22.80;35.30;;;;;;476233;249;2157;-44
2023/01/12 04:36:10;;;;;;;;;;;22.60;35.60;;;;;;476200;249;2204;-45
2023/01/12 04:38:10;;;;;;;;;;;22.60;35.70;;;;;;476204;250;2276;-44
2023/01/12 04:40:11;;;;;;;;;;;22.80;35.40;;;;;;476244;249;1683;-45
2023/01/12 04:44:33;;;;;;;;;;;22.70;35.60;;;;;;476161;250;2139;-44
2023/01/12 04:46:34;;;;;;;;;;;22.50;35.70;;;;;;476583;249;2123;-44
2023/01/12 04:48:36;;;;;;;;;;;22.40;36.00;;;;;;476189;249;2007;-43
2023/01/12 04:50:38;;;;;;;;;;;22.30;36.20;;;;;;476195;249;2006;-44
2023/01/12 04:52:39;;;;;;;;;;;22.10;36.30;;;;;;476517;249;2041;-44
2023/01/12 04:54:40;;;;;;;;;;;22.10;36.50;;;;;;476479;249;2140;-44
2023/01/12 04:56:41;;;;;;;;;;;22.10;36.60;;;;;;476311;249;2129;-43
2023/01/12 04:58:42;;;;;;;;;;;22.00;36.60;;;;;;476324;249;1761;-45
2023/01/12 05:00:44;;;;;;;;;;;22.00;36.70;;;;;;476300;249;1822;-44
2023/01/12 05:02:45;;;;;;;;;;;22.00;36.70;;;;;;476277;249;1678;-44
2023/01/12 05:04:46;;;;;;;;;;;22.00;36.80;;;;;;476302;249;2256;-44
2023/01/12 05:06:48;;;;;;;;;;;21.90;36.80;;;;;;476334;249;1884;-44
2023/01/12 05:11:08;;;;;;;;;;;21.80;37.00;;;;;;476174;250;2276;-45
2023/01/12 05:13:10;;;;;;;;;;;21.80;37.00;;;;;;476171;249;1653;-44
2023/01/12 05:15:11;;;;;;;;;;;21.70;37.10;;;;;;476094;249;2203;-44
2023/01/12 05:17:12;;;;;;;;;;;21.70;37.10;;;;;;476159;249;2654;-44
2023/01/12 05:19:14;;;;;;;;;;;21.70;37.20;;;;;;476545;249;2093;-44
2023/01/12 05:21:16;;;;;;;;;;;21.70;37.20;;;;;;476195;249;1710;-44
2023/01/12 05:23:16;;;;;;;;;;;21.60;37.20;;;;;;475840;250;2170;-44
2023/01/12 05:25:18;;;;;;;;;;;21.70;37.30;;;;;;476031;249;1830;-44
2023/01/12 05:27:19;;;;;;;;;;;21.60;37.20;;;;;;476293;249;1872;-44
2023/01/12 05:29:20;;;;;;;;;;;21.60;37.20;;;;;;475998;249;1873;-44
2023/01/12 05:31:22;;;;;;;;;;;21.60;37.30;;;;;;476083;249;2265;-44
2023/01/12 05:33:23;;;;;;;;;;;21.60;37.30;;;;;;476245;249;1772;-44
2023/01/12 05:35:24;;;;;;;;;;;21.60;37.30;;;;;;476078;249;2211;-45
2023/01/12 05:37:26;;;;;;;;;;;21.50;37.30;;;;;;476117;249;2133;-44
2023/01/12 05:39:27;;;;;;;;;;;21.60;37.40;;;;;;476015;249;1738;-44
2023/01/12 05:41:28;;;;;;;;;;;21.50;37.30;;;;;;475939;249;2189;-44
2023/01/12 05:45:49;;;;;;;;;;;21.60;37.40;;;;;;475938;250;1739;-44
2023/01/12 05:47:50;;;;;;;;;;;21.50;37.40;;;;;;476110;249;1709;-44
2023/01/12 05:49:51;;;;;;;;;;;21.50;37.40;;;;;;476223;249;1961;-44
2023/01/12 05:51:53;;;;;;;;;;;21.50;37.40;;;;;;476251;249;1675;-44
2023/01/12 05:53:54;;;;;;;;;;;21.50;37.50;;;;;;476193;249;1563;-45
2023/01/12 05:55:55;;;;;;;;;;;21.40;37.50;;;;;;476083;249;2168;-44
2023/01/12 05:57:57;;;;;;;;;;;21.40;37.50;;;;;;475838;249;1800;-45
2023/01/12 05:59:58;;;;;;;;;;;21.40;37.50;;;;;;476293;249;1903;-44
2023/01/12 06:01:59;;;;;;;;;;;21.40;37.50;;;;;;476110;249;1755;-44
2023/01/12 06:04:01;;;;;;;;;;;21.40;37.50;;;;;;476232;249;1694;-44
2023/01/12 06:06:02;;;;;;;;;;;21.40;37.50;;;;;;476118;249;1968;-44
2023/01/12 06:08:03;;;;;;;;;;;21.40;37.50;;;;;;476011;249;1723;-44
2023/01/12 06:10:05;;;;;;;;;;;21.40;37.50;;;;;;475901;249;1933;-44
2023/01/12 06:14:25;;;;;;;;;;;21.40;37.60;;;;;;476107;250;2543;-44
2023/01/12 06:16:27;;;;;;;;;;;21.40;37.60;;;;;;476012;249;2187;-44
2023/01/12 06:18:28;;;;;;;;;;;21.40;37.60;;;;;;476164;249;2114;-45
2023/01/12 06:20:30;;;;;;;;;;;21.30;37.60;;;;;;475861;249;2204;-44
2023/01/12 06:22:31;;;;;;;;;;;21.30;37.60;;;;;;475825;249;1688;-45
2023/01/12 06:24:32;;;;;;;;;;;21.40;37.70;;;;;;475782;249;1699;-44
2023/01/12 06:26:34;;;;;;;;;;;21.30;37.60;;;;;;475897;249;1707;-44
2023/01/12 06:28:35;;;;;;;;;;;21.40;37.60;;;;;;475938;249;2483;-44
2023/01/12 06:30:36;;;;;;;;;;;21.30;37.60;;;;;;476059;249;1717;-44
2023/01/12 06:32:40;;;;;;;;;;;21.30;37.70;;;;;;475974;249;1720;-44
2023/01/12 06:34:39;;;;;;;;;;;21.30;37.70;;;;;;475867;250;2300;-44
2023/01/12 06:36:40;;;;;;;;;;;21.30;37.70;;;;;;476040;249;2196;-44
2023/01/12 06:38:42;;;;;;;;;;;21.30;37.70;;;;;;476163;249;1833;-44
2023/01/12 06:40:44;;;;;;;;;;;21.30;37.70;;;;;;476009;249;1629;-44
2023/01/12 06:42:45;;;;;;;;;;;21.30;37.60;;;;;;476049;249;1966;-44
2023/01/12 06:44:46;;;;;;;;;;;21.30;37.60;;;;;;476049;249;1394;-44
2023/01/12 06:46:48;;;;;;;;;;;21.30;37.60;;;;;;475693;249;2114;-44
2023/01/12 06:48:49;;;;;;;;;;;21.30;37.70;;;;;;475815;249;1719;-44
2023/01/12 06:50:50;;;;;;;;;;;21.30;37.70;;;;;;476106;249;1698;-44
2023/01/12 06:52:52;;;;;;;;;;;21.30;37.70;;;;;;476118;249;1751;-44
2023/01/12 06:54:53;;;;;;;;;;;21.30;37.70;;;;;;475944;249;1917;-44
2023/01/12 06:56:54;;;;;;;;;;;21.20;37.70;;;;;;476183;250;2160;-44
2023/01/12 06:58:56;;;;;;;;;;;21.20;37.70;;;;;;476187;249;2210;-44
2023/01/12 07:00:57;;;;;;;;;;;21.30;37.70;;;;;;475759;249;1670;-44
2023/01/12 07:02:58;;;;;;;;;;;21.30;37.70;;;;;;476044;249;1765;-44
2023/01/12 07:05:00;;;;;;;;;;;21.30;37.70;;;;;;476001;249;1744;-44
2023/01/12 07:07:01;;;;;;;;;;;21.20;37.70;;;;;;475977;249;1655;-44
2023/01/12 07:09:03;;;;;;;;;;;21.20;37.70;;;;;;476017;249;1733;-45
2023/01/12 07:11:04;;;;;;;;;;;21.20;37.70;;;;;;475801;249;1662;-44
2023/01/12 07:13:05;;;;;;;;;;;21.20;37.70;;;;;;475471;249;1637;-44
2023/01/12 07:15:06;;;;;;;;;;;21.20;37.60;;;;;;475634;249;1945;-44
2023/01/12 07:17:08;;;;;;;;;;;21.20;37.60;;;;;;475373;249;2370;-44
2023/01/12 07:19:09;;;;;;;;;;;21.20;37.60;;;;;;475661;249;1736;-44
2023/01/12 07:21:12;;;;;;;;;;;21.20;37.60;;;;;;475614;249;1951;-44
2023/01/12 07:23:12;;;;;;;;;;;21.20;37.60;;;;;;475414;249;2284;-44
2023/01/12 07:25:13;;;;;;;;;;;21.20;37.50;;;;;;475635;250;2117;-44
2023/01/12 07:27:14;;;;;;;;;;;21.20;37.50;;;;;;475640;249;1757;-44
2023/01/12 07:29:16;;;;;;;;;;;21.20;37.50;;;;;;475575;249;1720;-44
2023/01/12 07:31:17;;;;;;;;;;;21.20;37.50;;;;;;475495;249;2391;-44
2023/01/12 07:33:19;;;;;;;;;;;21.20;37.40;;;;;;475821;249;1778;-44
2023/01/12 07:35:21;;;;;;;;;;;21.30;37.40;;;;;;475611;249;1921;-44
2023/01/12 07:37:22;;;;;;;;;;;21.20;37.30;;;;;;475818;249;2277;-44
2023/01/12 07:39:23;;;;;;;;;;;21.20;37.30;;;;;;475583;249;1880;-44
2023/01/12 07:43:44;;;;;;;;;;;21.20;37.30;;;;;;475740;250;1586;-44
2023/01/12 07:45:45;;;;;;;;;;;21.20;37.30;;;;;;475652;249;1943;-44
2023/01/12 07:47:46;;;;;;;;;;;21.20;37.30;;;;;;475630;249;1913;-44
2023/01/12 07:49:48;;;;;;;;;;;21.20;37.30;;;;;;475730;249;2120;-44
2023/01/12 07:51:49;;;;;;;;;;;21.20;37.30;;;;;;475728;249;1665;-44
2023/01/12 07:53:50;;;;;;;;;;;21.20;37.30;;;;;;475661;249;1682;-44
2023/01/12 07:55:52;;;;;;;;;;;21.20;37.20;;;;;;475779;249;1990;-44
2023/01/12 07:57:53;;;;;;;;;;;21.20;37.20;;;;;;475858;249;2192;-44
2023/01/12 07:59:54;;;;;;;;;;;21.20;37.20;;;;;;475801;249;1821;-44
2023/01/12 08:01:56;;;;;;;;;;;21.20;37.20;;;;;;475683;249;1835;-44
2023/01/12 08:03:57;;;;;;;;;;;21.20;37.10;;;;;;475748;249;2035;-44
2023/01/12 08:05:58;;;;;;;;;;;21.30;37.20;;;;;;475789;249;1639;-44
2023/01/12 08:08:00;;;;;;;;;;;21.20;37.20;;;;;;475685;249;1816;-44
2023/01/12 08:10:01;;;;;;;;;;;21.20;37.10;;;;;;475634;249;1683;-44
2023/01/12 08:12:02;;;;;;;;;;;21.20;37.10;;;;;;475716;249;1711;-44
2023/01/12 08:14:04;;;;;;;;;;;21.20;37.10;;;;;;475767;249;2197;-44
2023/01/12 08:16:06;;;;;;;;;;;21.20;37.10;;;;;;475774;249;1685;-44
2023/01/12 08:18:07;;;;;;;;;;;21.20;37.10;;;;;;475509;249;1740;-44
2023/01/12 08:20:09;;;;;;;;;;;21.20;37.00;;;;;;475687;249;1736;-44
2023/01/12 08:22:10;;;;;;;;;;;21.20;37.00;;;;;;475841;249;1753;-44
2023/01/12 08:24:11;;;;;;;;;;;21.20;37.00;;;;;;475633;249;1696;-44
2023/01/12 08:26:13;;;;;;;;;;;21.20;37.00;;;;;;475575;249;2039;-44
2023/01/12 08:28:14;;;;;;;;;;;21.20;37.00;;;;;;475897;249;1757;-44
2023/01/12 08:30:15;;;;;;;;;;;21.20;37.00;;;;;;475814;249;1729;-44
2023/01/12 08:32:17;;;;;;;;;;;21.30;37.00;;;;;;475851;249;1687;-44
2023/01/12 08:34:18;;;;;;;;;;;21.30;37.00;;;;;;475795;249;1649;-44
2023/01/12 08:36:19;;;;;;;;;;;21.30;36.90;;;;;;475804;249;2190;-44
2023/01/12 08:38:21;;;;;;;;;;;21.30;37.00;;;;;;475718;249;1575;-44
2023/01/12 08:40:22;;;;;;;;;;;21.30;36.90;;;;;;475798;249;1747;-44
2023/01/12 08:42:24;;;;;;;;;;;21.30;36.80;;;;;;475877;249;2178;-45
2023/01/12 08:44:30;;;;;;;;;;;21.40;36.70;;;;;;475814;249;2081;-44
2023/01/12 08:46:26;;;;;;;;;;;21.40;36.60;;;;;;475452;250;1645;-44
2023/01/12 08:48:27;;;;;;;;;;;21.50;36.50;;;;;;475702;249;1864;-44
2023/01/12 08:50:29;;;;;;;;;;;21.60;36.40;;;;;;475812;249;1639;-44
2023/01/12 08:52:31;;;;;;;;;;;21.70;36.30;;;;;;475658;249;1542;-45
2023/01/12 08:54:32;;;;;;;;;;;21.70;36.10;;;;;;475524;249;1671;-44
2023/01/12 08:56:33;;;;;;;;;;;21.80;36.10;;;;;;475819;249;2219;-44
2023/01/12 08:58:34;;;;;;;;;;;21.80;36.10;;;;;;475690;249;2226;-44
2023/01/12 09:00:36;;;;;;;;;;;21.80;36.00;;;;;;475572;249;1637;-44
2023/01/12 09:02:37;;;;;;;;;;;21.80;36.00;;;;;;475519;249;1590;-45
2023/01/12 09:04:39;;;;;;;;;;;21.80;35.90;;;;;;475597;249;2247;-44
2023/01/12 09:06:40;;;;;;;;;;;21.80;35.90;;;;;;475578;249;2031;-44
2023/01/12 09:08:41;;;;;;;;;;;21.80;35.90;;;;;;475647;249;2227;-44
2023/01/12 09:10:43;;;;;;;;;;;21.80;35.90;;;;;;475604;249;1765;-44
2023/01/12 09:12:44;;;;;;;;;;;21.80;35.90;;;;;;475560;249;2236;-44
2023/01/12 09:14:45;;;;;;;;;;;21.80;35.90;;;;;;475630;249;1728;-44
2023/01/12 09:16:47;;;;;;;;;;;21.80;35.80;;;;;;475583;249;2192;-45
2023/01/12 09:18:48;;;;;;;;;;;21.80;35.80;;;;;;475652;249;1694;-44
2023/01/12 09:20:49;;;;;;;;;;;21.80;35.80;;;;;;475568;249;1695;-45
2023/01/12 09:22:51;;;;;;;;;;;21.80;35.80;;;;;;475451;249;1501;-44
2023/01/12 09:24:52;;;;;;;;;;;21.80;35.90;;;;;;475715;249;1781;-44
2023/01/12 09:26:53;;;;;;;;;;;21.80;35.90;;;;;;475549;249;1899;-44
2023/01/12 09:28:55;;;;;;;;;;;21.80;35.80;;;;;;475706;249;1434;-44
2023/01/12 09:30:56;;;;;;;;;;;21.80;35.90;;;;;;475828;249;1908;-44
2023/01/12 09:32:58;;;;;;;;;;;21.80;35.80;;;;;;475712;249;1580;-44
2023/01/12 09:34:59;;;;;;;;;;;21.90;35.90;;;;;;475993;249;1602;-44
2023/01/12 09:37:01;;;;;;;;;;;21.90;35.80;;;;;;475750;249;2200;-44
2023/01/12 09:39:02;;;;;;;;;;;21.80;35.70;;;;;;475979;249;1745;-44
2023/01/12 09:41:03;;;;;;;;;;;21.90;35.80;;;;;;476001;249;1722;-44
2023/01/12 09:47:56;;;;;;;;;;;21.90;35.70;;;;;;436791;271;1676;-44
2023/01/12 09:49:57;;;;;;;;;;;21.90;35.70;;;;;;452269;262;2137;-44
2023/01/12 09:51:59;;;;;;;;;;;21.90;35.70;;;;;;452406;263;2582;-44
2023/01/12 09:54:00;;;;;;;;;;;21.90;35.80;;;;;;452308;263;1831;-44
2023/01/12 09:56:01;;;;;;;;;;;21.80;35.80;;;;;;452423;263;2321;-44
2023/01/12 09:58:03;;;;;;;;;;;21.90;35.80;;;;;;452470;263;2217;-44
2023/01/12 10:00:04;;;;;;;;;;;21.90;35.80;;;;;;452584;263;1670;-44
2023/01/12 10:02:05;;;;;;;;;;;21.90;35.80;;;;;;452671;263;2156;-44
2023/01/12 10:04:07;;;;;;;;;;;21.90;35.70;;;;;;452497;263;2029;-44
2023/01/12 10:06:12;;;;;;;;;;;21.90;35.80;;;;;;452470;263;1728;-44
2023/01/12 10:08:09;;;;;;;;;;;21.80;35.80;;;;;;452269;263;2431;-44
2023/01/12 10:10:11;;;;;;;;;;;21.70;36.00;;;;;;452368;263;1793;-44
2023/01/12 10:12:18;;;;;;;;;;;21.70;35.10;;;;;;502017;234;1701;-45
2023/01/12 10:14:19;;;;;;;;;;;21.80;36.00;;;;;;491020;241;1632;-43
2023/01/12 10:16:20;;;;;;;;;;;21.80;35.90;;;;;;491040;240;1866;-42
2023/01/12 10:18:21;;;;;;;;;;;21.80;35.80;;;;;;490898;240;1554;-43
2023/01/12 10:20:23;;;;;;;;;;;21.80;35.60;;;;;;490963;240;1658;-42
2023/01/12 10:22:36;;;;;;;;;;;21.90;35.60;;;;;;490823;240;1812;-43
2023/01/12 10:24:37;;;;;;;;;;;21.90;35.60;;;;;;490881;240;1704;-42
2023/01/12 10:26:39;;;;;;;;;;;22.00;35.50;;;;;;490841;240;1877;-42
2023/01/12 10:28:40;;;;;;;;;;;22.00;35.50;;;;;;490970;240;1557;-43
2023/01/12 10:30:41;;;;;;;;;;;22.00;35.50;;;;;;490880;240;2215;-42
2023/01/12 10:32:43;;;;;;;;;;;22.00;35.40;;;;;;490692;240;1694;-42
2023/01/12 10:34:44;;;;;;;;;;;22.00;35.40;;;;;;490473;240;1613;-42
2023/01/12 10:36:45;;;;;;;;;;;22.00;35.40;;;;;;490563;240;1608;-42
2023/01/12 10:38:47;;;;;;;;;;;22.00;35.40;;;;;;490713;240;1620;-42
2023/01/12 10:40:48;;;;;;;;;;;21.90;35.40;;;;;;490733;240;1564;-43
2023/01/12 10:45:09;;;;;;;;;;;22.00;35.50;;;;;;490899;242;1730;-43
2023/01/12 10:47:10;;;;;;;;;;;21.90;35.40;;;;;;490890;240;1681;-42
2023/01/12 10:49:11;;;;;;;;;;;22.00;35.50;;;;;;490857;240;1612;-43
2023/01/12 10:51:13;;;;;;;;;;;21.90;35.40;;;;;;490892;240;2187;-42
2023/01/12 10:53:14;;;;;;;;;;;22.00;35.50;;;;;;491152;240;1646;-43
2023/01/12 10:55:15;;;;;;;;;;;22.00;35.40;;;;;;491121;240;1849;-43
2023/01/12 10:57:16;;;;;;;;;;;22.00;35.50;;;;;;490971;240;1715;-42
2023/01/12 10:59:18;;;;;;;;;;;22.00;35.40;;;;;;491165;240;1673;-43
2023/01/12 11:01:19;;;;;;;;;;;22.10;35.20;;;;;;491062;240;1633;-42
2023/01/12 11:03:21;;;;;;;;;;;22.20;34.80;;;;;;490912;240;1796;-42
2023/01/12 11:05:22;;;;;;;;;;;22.40;34.60;;;;;;491307;240;1689;-42
2023/01/12 11:07:24;;;;;;;;;;;22.50;34.50;;;;;;491228;240;1989;-42
2023/01/12 11:09:25;;;;;;;;;;;22.40;34.50;;;;;;491119;240;1987;-43
2023/01/12 11:11:26;;;;;;;;;;;22.30;34.70;;;;;;491191;240;2156;-42
2023/01/12 11:13:29;;;;;;;;;;;22.30;34.80;;;;;;491290;240;1640;-42
2023/01/12 11:15:29;;;;;;;;;;;22.40;34.60;;;;;;491217;240;2256;-42
2023/01/12 11:17:30;;;;;;;;;;;22.50;34.40;;;;;;491358;240;2198;-42
2023/01/12 11:19:31;;;;;;;;;;;22.50;34.40;;;;;;491407;240;1961;-42
2023/01/12 11:21:33;;;;;;;;;;;22.40;34.50;;;;;;491429;240;1247;-42
2023/01/12 11:23:34;;;;;;;;;;;22.40;34.70;;;;;;491219;240;1770;-42
2023/01/12 11:25:35;;;;;;;;;;;22.20;34.80;;;;;;491312;240;1641;-42
2023/01/12 11:27:37;;;;;;;;;;;22.20;34.90;;;;;;491069;240;1623;-42
2023/01/12 11:29:38;;;;;;;;;;;22.10;34.90;;;;;;491271;240;1701;-42
2023/01/12 11:31:39;;;;;;;;;;;22.10;35.10;;;;;;491122;240;2183;-42
2023/01/12 11:33:41;;;;;;;;;;;22.00;35.10;;;;;;491058;240;2064;-42
2023/01/12 11:35:43;;;;;;;;;;;22.00;35.20;;;;;;491140;240;1688;-42
2023/01/12 11:37:43;;;;;;;;;;;22.00;35.30;;;;;;490863;240;1695;-42
2023/01/12 11:39:46;;;;;;;;;;;22.00;35.40;;;;;;490929;240;1663;-43
2023/01/12 11:43:47;;;;;;;;;;;21.90;35.40;;;;;;490914;240;2110;-43
2023/01/12 11:43:48;;;;;;;;;;;21.80;35.50;;;;;;491111;240;2049;-42
2023/01/12 11:45:49;;;;;;;;;;;21.80;35.50;;;;;;491130;240;1825;-42
2023/01/12 11:47:51;;;;;;;;;;;21.80;35.60;;;;;;490885;240;2115;-43
2023/01/12 11:49:52;;;;;;;;;;;21.70;35.60;;;;;;490597;240;2247;-42
2023/01/12 11:51:55;;;;;;;;;;;21.70;35.70;;;;;;490801;240;2192;-43
2023/01/12 11:53:56;;;;;;;;;;;21.70;35.70;;;;;;490746;240;1749;-42
2023/01/12 11:55:57;;;;;;;;;;;21.70;35.70;;;;;;490836;240;1793;-42
2023/01/12 11:57:59;;;;;;;;;;;21.70;35.80;;;;;;490844;240;2141;-42
2023/01/12 12:00:00;;;;;;;;;;;21.60;35.80;;;;;;490988;240;1788;-42
2023/01/12 12:02:01;;;;;;;;;;;21.60;35.80;;;;;;490688;240;1701;-42
2023/01/12 12:04:03;;;;;;;;;;;21.60;35.80;;;;;;490749;240;1658;-42
2023/01/12 12:06:04;;;;;;;;;;;21.60;35.80;;;;;;490328;240;1500;-43
2023/01/12 12:08:06;;;;;;;;;;;21.60;35.80;;;;;;490679;240;1685;-43
2023/01/12 12:10:07;;;;;;;;;;;21.60;35.80;;;;;;490747;240;1528;-43
2023/01/12 12:12:08;;;;;;;;;;;21.70;35.70;;;;;;490626;240;2204;-42
2023/01/12 12:14:10;;;;;;;;;;;21.70;35.70;;;;;;490726;240;1756;-43
2023/01/12 12:16:11;;;;;;;;;;;21.70;35.60;;;;;;490649;240;1687;-43
2023/01/12 12:18:12;;;;;;;;;;;21.70;35.60;;;;;;490757;240;1576;-42
2023/01/12 12:20:14;;;;;;;;;;;21.80;35.50;;;;;;490778;240;1632;-42
2023/01/12 12:22:15;;;;;;;;;;;21.80;35.40;;;;;;490783;240;1704;-42
2023/01/12 12:24:16;;;;;;;;;;;21.80;35.40;;;;;;490823;240;1616;-43
2023/01/12 12:26:18;;;;;;;;;;;21.90;35.30;;;;;;490914;240;1308;-42
2023/01/12 12:28:19;;;;;;;;;;;21.90;35.30;;;;;;490999;240;1688;-42
2023/01/12 12:30:20;;;;;;;;;;;21.90;35.30;;;;;;491025;240;1711;-42
2023/01/12 12:32:21;;;;;;;;;;;21.90;35.30;;;;;;490945;240;2192;-42